Time;durP1;ratioP1;P1;durP2;ratioP2;P2;SDS_P1;SDS_P2;PMS_P1;PMS_P2;Temp;Humidity;BMP_temperature;BMP_pressure;BME280_temperature;BME280_humidity;BME280_pressure;Samples;Min_cycle;Max_cycle;Signal;HPM_P1;HPM_P2
2023/03/18 00:02:28;;;;;;;17.27;9.57;;;-0.50;2.40;;;;;;8307186;28;20192;-83
2023/03/18 00:06:29;;;;;;;18.27;10.03;;;-0.40;15.00;;;;;;8298558;28;20192;-83
2023/03/18 00:10:33;;;;;;;20.13;10.90;;;-0.40;19.50;;;;;;8297634;28;20288;-83
2023/03/18 00:14:36;;;;;;;19.83;10.57;;;-0.40;49.00;;;;;;8302576;28;20245;-83
2023/03/18 00:18:39;;;;;;;17.40;9.93;;;-0.40;70.30;;;;;;8300216;28;20301;-83
2023/03/18 00:22:41;;;;;;;16.97;9.93;;;-0.40;96.40;;;;;;8304765;28;20185;-82
2023/03/18 00:26:42;;;;;;;19.30;10.83;;;-0.40;93.70;;;;;;8302235;28;20235;-82
2023/03/18 00:30:43;;;;;;;24.13;13.27;;;-0.40;95.30;;;;;;8298586;28;20201;-82
2023/03/18 00:34:44;;;;;;;20.87;11.37;;;-0.40;99.90;;;;;;8295888;28;20329;-82
2023/03/18 00:38:49;;;;;;;18.97;11.27;;;-0.30;99.90;;;;;;8303360;28;20217;-82
2023/03/18 00:42:56;;;;;;;19.90;11.20;;;-0.30;95.40;;;;;;8308264;28;20181;-83
2023/03/18 00:46:57;;;;;;;23.93;12.17;;;-0.30;98.40;;;;;;8303768;28;20200;-82
2023/03/18 00:50:58;;;;;;;23.57;12.87;;;-0.30;99.90;;;;;;8300263;28;20187;-82
2023/03/18 00:54:59;;;;;;;23.27;12.20;;;-0.30;99.90;;;;;;8319837;28;20483;-82
2023/03/18 00:59:00;;;;;;;19.13;11.17;;;-0.40;99.90;;;;;;8301370;28;20539;-82
2023/03/18 01:03:01;;;;;;;20.87;10.53;;;-0.40;96.00;;;;;;8304648;28;20183;-83
2023/03/18 01:07:02;;;;;;;15.87;9.37;;;-0.50;99.90;;;;;;8306872;28;20189;-82
2023/03/18 01:11:03;;;;;;;19.70;10.77;;;-0.50;99.90;;;;;;8305598;28;20528;-82
2023/03/18 01:15:05;;;;;;;19.20;9.43;;;-0.50;99.90;;;;;;8305874;28;20228;-82
2023/03/18 01:19:06;;;;;;;18.27;9.50;;;-0.50;99.90;;;;;;8304606;28;20213;-82
2023/03/18 01:23:07;;;;;;;22.77;10.70;;;-0.50;99.90;;;;;;8312163;28;20178;-82
2023/03/18 01:27:08;;;;;;;19.87;10.73;;;-0.50;99.90;;;;;;8312560;28;20192;-82
2023/03/18 01:31:09;;;;;;;20.67;10.67;;;-0.60;99.90;;;;;;8311300;28;20191;-82
2023/03/18 01:35:11;;;;;;;17.30;9.87;;;-0.60;99.90;;;;;;8308700;28;20208;-82
2023/03/18 01:39:12;;;;;;;18.90;9.70;;;-0.60;99.90;;;;;;8310361;28;20213;-81
2023/03/18 01:43:23;;;;;;;18.90;9.93;;;-0.70;99.90;;;;;;8310460;28;20172;-81
2023/03/18 01:47:24;;;;;;;17.53;9.97;;;-0.70;99.90;;;;;;8306263;28;20244;-82
2023/03/18 01:51:26;;;;;;;18.27;9.67;;;-0.70;99.90;;;;;;8305909;28;20215;-82
2023/03/18 01:55:30;;;;;;;17.97;8.70;;;-0.70;99.90;;;;;;8304410;28;20185;-81
2023/03/18 01:59:37;;;;;;;16.40;9.30;;;-0.70;99.90;;;;;;8303241;28;20213;-81
2023/03/18 02:03:41;;;;;;;18.80;9.10;;;-0.70;99.90;;;;;;8305918;28;20176;-81
2023/03/18 02:07:43;;;;;;;16.63;9.30;;;-0.70;99.90;;;;;;8310378;28;20186;-81
2023/03/18 02:11:48;;;;;;;15.17;9.10;;;-0.60;99.90;;;;;;8306845;28;20193;-81
2023/03/18 02:16:02;;;;;;;16.43;8.93;;;-0.60;99.90;;;;;;8303643;28;20258;-81
2023/03/18 02:20:48;;;;;;;14.37;8.07;;;-0.60;99.90;;;;;;8304072;28;20267;-80
2023/03/18 02:25:22;;;;;;;16.73;9.03;;;-0.60;99.90;;;;;;8263935;28;20210;-81
2023/03/18 02:29:24;;;;;;;16.23;8.43;;;-0.50;99.90;;;;;;8303215;28;20203;-81
2023/03/18 02:33:31;;;;;;;14.60;8.27;;;-0.50;99.90;;;;;;8310345;28;20191;-81
2023/03/18 02:37:32;;;;;;;15.97;8.70;;;-0.40;99.90;;;;;;8306274;28;20219;-81
2023/03/18 02:41:34;;;;;;;14.50;8.60;;;-0.40;99.90;;;;;;8305120;28;20222;-82
2023/03/18 02:45:50;;;;;;;15.87;8.43;;;-0.40;99.90;;;;;;8305673;28;20189;-81
2023/03/18 02:49:51;;;;;;;15.27;9.20;;;-0.40;99.90;;;;;;8305282;28;20189;-81
2023/03/18 02:53:57;;;;;;;17.20;8.80;;;-0.40;99.90;;;;;;8302841;28;20198;-81
2023/03/18 02:57:58;;;;;;;15.63;8.60;;;-0.50;99.90;;;;;;8306462;28;20238;-81
2023/03/18 03:02:00;;;;;;;17.20;8.50;;;-0.50;99.90;;;;;;8311771;28;20186;-82
2023/03/18 03:06:02;;;;;;;14.33;7.70;;;-0.50;99.90;;;;;;8301996;28;20267;-81
2023/03/18 03:10:05;;;;;;;12.90;7.73;;;-0.60;99.90;;;;;;8312716;28;20242;-81
2023/03/18 03:14:08;;;;;;;13.13;7.33;;;-0.60;99.90;;;;;;8302631;28;20219;-82
2023/03/18 03:18:09;;;;;;;13.23;7.90;;;-0.60;99.90;;;;;;8308479;28;20311;-82
2023/03/18 03:22:10;;;;;;;11.53;6.53;;;-0.70;99.90;;;;;;8308413;28;20177;-82
2023/03/18 03:26:11;;;;;;;13.67;7.03;;;-0.70;99.90;;;;;;8307353;28;20212;-82
2023/03/18 03:30:13;;;;;;;13.37;7.13;;;-0.80;99.90;;;;;;8301566;28;20612;-81
2023/03/18 03:34:13;;;;;;;15.00;7.63;;;-0.80;99.90;;;;;;8302788;28;20211;-82
2023/03/18 03:38:14;;;;;;;14.07;7.63;;;-0.80;99.90;;;;;;8310134;28;20200;-82
2023/03/18 03:42:15;;;;;;;11.50;6.73;;;-0.80;99.90;;;;;;8299253;28;20183;-82
2023/03/18 03:46:16;;;;;;;14.33;6.70;;;-0.90;99.90;;;;;;8301520;28;20251;-82
2023/03/18 03:50:17;;;;;;;11.87;7.07;;;-0.90;99.90;;;;;;8310611;28;20220;-82
2023/03/18 03:54:18;;;;;;;11.90;6.70;;;-0.90;99.90;;;;;;8305716;28;20215;-82
2023/03/18 03:58:19;;;;;;;13.23;7.20;;;-0.80;1.00;;;;;;8304805;28;20203;-81
2023/03/18 04:02:22;;;;;;;13.83;7.00;;;-0.80;1.00;;;;;;8310999;28;20215;-81
2023/03/18 04:06:23;;;;;;;13.50;7.03;;;-0.80;1.00;;;;;;8313468;28;20275;-81
2023/03/18 04:10:25;;;;;;;15.67;7.40;;;-0.80;1.00;;;;;;8306463;28;20199;-81
2023/03/18 04:14:26;;;;;;;13.13;7.50;;;-0.80;1.00;;;;;;8302921;28;20185;-81
2023/03/18 04:18:26;;;;;;;12.87;7.67;;;-0.80;1.00;;;;;;8308319;28;20231;-82
2023/03/18 04:22:28;;;;;;;13.27;7.60;;;-0.80;1.00;;;;;;8310708;28;20271;-80
2023/03/18 04:26:30;;;;;;;14.33;8.07;;;-0.90;1.00;;;;;;8299359;28;20199;-82
2023/03/18 04:30:30;;;;;;;13.33;8.43;;;-0.90;1.00;;;;;;8299015;28;20227;-82
2023/03/18 04:34:31;;;;;;;14.17;7.90;;;-1.00;1.00;;;;;;8299480;28;20300;-82
2023/03/18 04:38:33;;;;;;;13.73;8.40;;;-1.00;1.00;;;;;;8307642;28;20213;-82
2023/03/18 04:42:34;;;;;;;13.83;7.83;;;-1.00;1.00;;;;;;8300485;28;20203;-82
2023/03/18 04:46:35;;;;;;;13.43;8.17;;;-1.00;1.00;;;;;;8296798;28;20243;-83
2023/03/18 04:50:35;;;;;;;18.30;7.70;;;-1.00;1.00;;;;;;8304522;28;20261;-81
2023/03/18 04:54:37;;;;;;;14.20;7.97;;;-1.00;1.00;;;;;;8311749;28;20490;-82
2023/03/18 04:58:38;;;;;;;12.33;7.30;;;-1.00;1.00;;;;;;8309409;28;20553;-81
2023/03/18 05:02:40;;;;;;;13.57;7.90;;;-1.10;1.00;;;;;;8308227;28;20188;-82
2023/03/18 05:06:41;;;;;;;14.43;6.77;;;-1.10;1.00;;;;;;8306090;28;20484;-81
2023/03/18 05:10:42;;;;;;;14.37;7.70;;;-1.10;1.00;;;;;;8305409;28;20191;-81
2023/03/18 05:14:43;;;;;;;15.53;6.83;;;-1.10;96.50;;;;;;8300844;28;20192;-81
2023/03/18 05:18:45;;;;;;;15.60;8.10;;;-1.10;99.90;;;;;;8324375;28;20251;-79
2023/03/18 05:22:46;;;;;;;21.77;12.47;;;-1.00;99.90;;;;;;8307839;28;20203;-79
2023/03/18 05:26:48;;;;;;;21.73;10.83;;;-0.80;99.90;;;;;;8307743;28;20215;-79
2023/03/18 05:30:49;;;;;;;16.50;9.90;;;-0.70;99.90;;;;;;8311083;28;20188;-79
2023/03/18 05:34:50;;;;;;;12.33;8.07;;;-0.70;99.90;;;;;;8304075;28;20279;-79
2023/03/18 05:38:50;;;;;;;10.53;6.13;;;-0.70;95.90;;;;;;8306234;28;20212;-79
2023/03/18 05:42:51;;;;;;;9.27;5.47;;;-0.60;34.60;;;;;;8298052;28;20199;-79
2023/03/18 05:46:52;;;;;;;8.93;5.63;;;-0.60;1.00;;;;;;8300723;28;20216;-79
2023/03/18 05:50:53;;;;;;;8.73;5.17;;;-0.60;1.00;;;;;;8310900;28;20205;-79
2023/03/18 05:54:54;;;;;;;8.57;4.90;;;-0.50;1.00;;;;;;8309574;28;20228;-79
2023/03/18 05:58:56;;;;;;;10.10;5.70;;;-0.50;1.00;;;;;;8310533;28;20225;-79
2023/03/18 06:02:58;;;;;;;9.20;5.73;;;-0.40;1.00;;;;;;8320065;28;20269;-79
2023/03/18 06:07:00;;;;;;;13.07;6.27;;;-0.40;1.00;;;;;;8301583;28;20337;-80
2023/03/18 06:11:00;;;;;;;13.30;6.50;;;-0.30;99.90;;;;;;8303322;28;20289;-79
2023/03/18 06:15:02;;;;;;;9.90;5.77;;;-0.30;99.90;;;;;;8309961;28;20280;-80
2023/03/18 06:19:04;;;;;;;9.43;5.73;;;-0.10;99.90;;;;;;8306680;28;20226;-80
2023/03/18 06:23:06;;;;;;;9.70;5.93;;;0.00;99.90;;;;;;8305924;28;20196;-80
2023/03/18 06:27:07;;;;;;;10.27;5.77;;;0.20;99.90;;;;;;8297858;28;20191;-79
2023/03/18 06:31:09;;;;;;;13.93;6.80;;;0.50;99.90;;;;;;8305912;28;20190;-80
2023/03/18 06:35:11;;;;;;;14.93;9.37;;;0.80;99.90;;;;;;8309407;28;20210;-79
2023/03/18 06:39:12;;;;;;;14.03;7.60;;;1.10;1.00;;;;;;8303030;28;20344;-79
2023/03/18 06:43:14;;;;;;;13.23;7.57;;;1.40;1.00;;;;;;8300004;28;20274;-79
2023/03/18 06:47:17;;;;;;;12.00;7.07;;;1.90;99.90;;;;;;8309021;28;20197;-79
2023/03/18 06:51:18;;;;;;;11.90;7.23;;;2.20;99.90;;;;;;8309922;28;20218;-79
2023/03/18 06:55:19;;;;;;;29.37;13.90;;;2.60;99.90;;;;;;8306801;28;20194;-78
2023/03/18 06:59:22;;;;;;;44.20;21.37;;;3.00;48.10;;;;;;8304707;28;20221;-80
2023/03/18 07:03:22;;;;;;;36.10;20.70;;;3.40;1.00;;;;;;8303539;28;20278;-78
2023/03/18 07:07:23;;;;;;;43.87;23.23;;;3.80;1.00;;;;;;8312713;28;20217;-79
2023/03/18 07:11:24;;;;;;;80.23;40.20;;;4.10;1.00;;;;;;8319272;28;20194;-78
2023/03/18 07:15:25;;;;;;;74.33;35.73;;;4.20;99.90;;;;;;8330992;28;20195;-80
2023/03/18 07:19:27;;;;;;;74.57;35.03;;;4.30;99.90;;;;;;8332808;28;20207;-79
2023/03/18 07:23:28;;;;;;;70.40;34.13;;;4.50;99.90;;;;;;8340433;28;20199;-80
2023/03/18 07:27:28;;;;;;;70.33;33.67;;;4.80;99.90;;;;;;8338076;28;20218;-80
2023/03/18 07:31:29;;;;;;;64.93;33.87;;;5.10;99.90;;;;;;8345367;28;20477;-78
2023/03/18 07:35:30;;;;;;;65.37;33.60;;;5.50;99.90;;;;;;8317333;28;20230;-78
2023/03/18 07:39:32;;;;;;;64.17;34.27;;;5.90;99.90;;;;;;8303377;28;20228;-78
2023/03/18 07:43:33;;;;;;;56.60;28.87;;;6.10;99.90;;;;;;8304616;28;20225;-79
2023/03/18 07:47:35;;;;;;;45.83;21.83;;;6.40;99.90;;;;;;8307195;28;20194;-78
2023/03/18 07:51:36;;;;;;;42.17;22.67;;;6.90;99.90;;;;;;8300106;28;20201;-78
2023/03/18 07:55:37;;;;;;;35.97;19.70;;;7.30;88.20;;;;;;8301229;28;20186;-78
2023/03/18 07:59:37;;;;;;;32.23;18.57;;;7.80;59.70;;;;;;8305587;28;20305;-79
2023/03/18 08:03:38;;;;;;;12.20;7.67;;;8.30;39.50;;;;;;8308195;28;20217;-78
2023/03/18 08:07:39;;;;;;;6.70;4.13;;;8.70;8.70;;;;;;8307083;28;20195;-79
2023/03/18 08:11:40;;;;;;;6.43;3.57;;;9.20;1.00;;;;;;8303548;28;20202;-78
2023/03/18 08:15:41;;;;;;;8.80;4.33;;;9.70;1.00;;;;;;8309727;28;20210;-78
2023/03/18 08:19:42;;;;;;;8.90;3.87;;;10.00;1.00;;;;;;8309393;28;20219;-78
2023/03/18 08:23:43;;;;;;;4.90;2.93;;;10.30;1.00;;;;;;8304640;28;20193;-78
2023/03/18 08:27:44;;;;;;;6.90;3.40;;;10.70;1.00;;;;;;8301929;28;20197;-78
2023/03/18 08:31:45;;;;;;;6.73;3.73;;;11.10;1.00;;;;;;8307663;28;20198;-78
2023/03/18 08:35:46;;;;;;;5.50;3.63;;;11.40;1.00;;;;;;8314246;28;20199;-78
2023/03/18 08:39:47;;;;;;;4.77;3.03;;;11.70;1.00;;;;;;8313571;28;20248;-78
2023/03/18 08:43:51;;;;;;;6.37;3.43;;;12.10;1.00;;;;;;8308931;28;20179;-78
2023/03/18 08:47:52;;;;;;;5.83;3.67;;;12.50;1.00;;;;;;8314879;28;20190;-78
2023/03/18 08:51:53;;;;;;;6.03;3.60;;;12.70;1.00;;;;;;8308541;28;20191;-79
2023/03/18 08:55:54;;;;;;;5.30;3.63;;;12.90;1.00;;;;;;8309496;28;20187;-79
2023/03/18 08:59:55;;;;;;;6.07;3.80;;;13.00;1.00;;;;;;8310668;28;20214;-78
2023/03/18 09:03:57;;;;;;;5.87;4.10;;;12.90;1.00;;;;;;8310242;28;20302;-78
2023/03/18 09:07:59;;;;;;;7.57;4.67;;;13.00;1.00;;;;;;8308556;28;20186;-78
2023/03/18 09:12:00;;;;;;;5.70;4.30;;;13.10;1.00;;;;;;8304818;28;20588;-79
2023/03/18 09:16:01;;;;;;;7.57;4.53;;;13.10;1.00;;;;;;8302190;28;20289;-78
2023/03/18 09:20:03;;;;;;;6.27;4.40;;;13.30;1.00;;;;;;8308537;28;20321;-77
2023/03/18 09:24:04;;;;;;;7.30;4.27;;;13.50;1.00;;;;;;8302404;28;20266;-79
2023/03/18 09:28:05;;;;;;;5.50;3.67;;;13.60;1.00;;;;;;8309529;28;20194;-79
2023/03/18 09:32:07;;;;;;;4.57;3.67;;;13.90;1.00;;;;;;8304146;28;20195;-79
2023/03/18 09:36:09;;;;;;;4.43;3.30;;;14.00;1.00;;;;;;8311689;28;20273;-79
2023/03/18 09:40:30;;;;;;;7.73;5.47;;;14.00;1.00;;;;;;8303149;28;20308;-78
2023/03/18 09:44:35;;;;;;;5.63;4.00;;;14.30;1.00;;;;;;8305476;28;20194;-80
2023/03/18 09:49:26;;;;;;;6.90;4.37;;;14.60;1.00;;;;;;8312225;28;20206;-78
2023/03/18 09:53:57;;;;;;;6.30;4.00;;;14.70;1.00;;;;;;8274468;28;20213;-79
2023/03/18 09:58:02;;;;;;;6.07;4.37;;;14.90;1.00;;;;;;8306796;28;20238;-78
2023/03/18 10:02:15;;;;;;;6.73;4.27;;;15.10;1.00;;;;;;8304476;28;20302;-78
2023/03/18 10:06:22;;;;;;;6.03;4.50;;;15.20;1.00;;;;;;8314628;28;20279;-78
2023/03/18 10:10:26;;;;;;;6.57;4.10;;;15.10;1.00;;;;;;8300001;28;20201;-79
2023/03/18 10:14:45;;;;;;;7.57;5.17;;;15.20;1.00;;;;;;8311706;28;20202;-78
2023/03/18 10:18:46;;;;;;;10.67;5.33;;;15.40;1.00;;;;;;8322365;28;20225;-78
2023/03/18 10:23:08;;;;;;;7.17;4.53;;;15.60;1.00;;;;;;8310762;28;20193;-78
2023/03/18 10:27:54;;;;;;;8.27;4.37;;;15.70;1.00;;;;;;8307839;28;20276;-78
2023/03/18 10:32:27;;;;;;;6.50;4.37;;;15.80;1.00;;;;;;8163327;28;20273;-78
2023/03/18 10:36:40;;;;;;;7.30;5.40;;;16.00;1.00;;;;;;8251183;28;20218;-77
2023/03/18 10:40:42;;;;;;;7.00;4.83;;;16.30;1.00;;;;;;8319842;28;20190;-78
2023/03/18 10:44:44;;;;;;;6.97;4.20;;;16.50;1.00;;;;;;8330355;28;20191;-79
2023/03/18 10:48:47;;;;;;;7.17;4.50;;;16.60;1.00;;;;;;8342696;28;20167;-78
2023/03/18 10:52:56;;;;;;;6.23;4.10;;;16.80;1.00;;;;;;8358943;28;20199;-78
2023/03/18 10:56:57;;;;;;;7.63;4.80;;;16.70;1.00;;;;;;8348457;28;20214;-78
2023/03/18 11:00:58;;;;;;;6.33;4.43;;;16.90;1.00;;;;;;8342981;28;20254;-79
2023/03/18 11:05:22;;;;;;;7.77;5.37;;;17.10;1.00;;;;;;8352302;28;20230;-79
2023/03/18 11:09:35;;;;;;;7.40;3.70;;;17.30;1.00;;;;;;8303759;28;20214;-79
2023/03/18 11:13:36;;;;;;;5.47;3.70;;;17.50;1.00;;;;;;8319015;28;20233;-79
2023/03/18 11:17:39;;;;;;;8.13;3.93;;;17.50;1.00;;;;;;8305519;28;20515;-78
2023/03/18 11:21:40;;;;;;;5.07;3.80;;;17.40;1.00;;;;;;8307340;28;20178;-78
2023/03/18 11:25:45;;;;;;;6.80;4.70;;;17.60;1.00;;;;;;8308699;28;20190;-78
2023/03/18 11:29:55;;;;;;;8.70;4.60;;;17.70;1.00;;;;;;8300963;28;20187;-79
2023/03/18 11:34:00;;;;;;;7.00;5.27;;;17.50;1.00;;;;;;8297831;28;20188;-78
2023/03/18 11:38:03;;;;;;;6.60;4.40;;;17.40;1.00;;;;;;8304944;28;20214;-79
2023/03/18 11:42:20;;;;;;;7.70;5.07;;;17.50;1.00;;;;;;8302595;28;20179;-78
2023/03/18 11:46:46;;;;;;;6.47;4.47;;;17.30;1.00;;;;;;8317591;28;20190;-78
2023/03/18 11:50:59;;;;;;;6.10;4.77;;;17.20;1.00;;;;;;8299721;28;20203;-80
2023/03/18 11:55:32;;;;;;;6.77;4.77;;;17.30;1.00;;;;;;8299527;28;20197;-78
2023/03/18 11:59:52;;;;;;;6.23;4.07;;;17.60;1.00;;;;;;8300185;28;20245;-79
2023/03/18 12:04:20;;;;;;;7.67;4.83;;;17.80;1.00;;;;;;8305078;28;20187;-78
2023/03/18 12:08:32;;;;;;;7.17;4.70;;;17.90;1.00;;;;;;8308364;28;20282;-78
2023/03/18 12:12:53;;;;;;;7.40;5.30;;;17.90;1.00;;;;;;8304416;28;20198;-78
2023/03/18 12:17:04;;;;;;;6.77;4.87;;;18.00;1.00;;;;;;8308723;28;20206;-80
2023/03/18 12:21:42;;;;;;;7.83;4.33;;;18.00;1.00;;;;;;8303000;28;20185;-79
2023/03/18 12:25:57;;;;;;;8.27;4.50;;;17.70;1.00;;;;;;8302172;28;20190;-78
2023/03/18 12:30:14;;;;;;;7.07;4.10;;;17.80;1.00;;;;;;8303781;28;20249;-78
2023/03/18 12:34:39;;;;;;;7.23;4.43;;;18.00;1.00;;;;;;8301176;28;20335;-78
2023/03/18 12:38:48;;;;;;;7.93;4.87;;;18.20;1.00;;;;;;8298463;28;20207;-78
2023/03/18 12:42:58;;;;;;;6.70;4.53;;;17.90;1.00;;;;;;8298751;28;20284;-80
2023/03/18 12:47:06;;;;;;;5.67;3.70;;;17.50;1.00;;;;;;8306748;28;20229;-79
2023/03/18 12:51:13;;;;;;;6.60;4.03;;;17.70;1.00;;;;;;8315357;28;20240;-79
2023/03/18 12:55:30;;;;;;;5.90;4.27;;;18.10;1.00;;;;;;8302776;28;20228;-79
2023/03/18 12:59:44;;;;;;;7.40;4.60;;;18.20;1.00;;;;;;8299176;28;20241;-78
2023/03/18 13:03:55;;;;;;;5.67;4.37;;;17.70;1.00;;;;;;8299328;28;20503;-79
2023/03/18 13:08:34;;;;;;;6.50;4.03;;;17.10;1.00;;;;;;8318464;28;20629;-78
2023/03/18 13:12:40;;;;;;;6.47;3.70;;;17.30;1.00;;;;;;8301919;28;20183;-78
2023/03/18 13:16:41;;;;;;;5.67;3.57;;;17.50;1.00;;;;;;8309623;28;20237;-79
2023/03/18 13:20:42;;;;;;;6.03;3.87;;;17.80;1.00;;;;;;8317391;28;20186;-79
2023/03/18 13:25:09;;;;;;;4.60;3.57;;;18.10;1.00;;;;;;8318672;28;20190;-79
2023/03/18 13:29:40;;;;;;;5.50;3.47;;;18.00;1.00;;;;;;8296502;28;20205;-79
2023/03/18 13:34:04;;;;;;;5.50;3.80;;;17.10;1.00;;;;;;8308489;28;20570;-79
2023/03/18 13:38:37;;;;;;;4.93;3.73;;;16.70;1.00;;;;;;8304445;28;20207;-79
2023/03/18 13:42:40;;;;;;;6.40;4.00;;;17.10;1.00;;;;;;8308398;28;20260;-81
2023/03/18 13:46:52;;;;;;;6.00;3.63;;;17.30;1.00;;;;;;8310787;28;20171;-78
2023/03/18 13:50:53;;;;;;;6.83;4.10;;;17.60;1.00;;;;;;8310807;28;20183;-78
2023/03/18 13:55:00;;;;;;;6.00;3.87;;;17.70;1.00;;;;;;8306196;28;20274;-78
2023/03/18 13:59:05;;;;;;;5.97;4.17;;;17.80;1.00;;;;;;8305748;28;20349;-79
2023/03/18 14:03:30;;;;;;;7.33;4.60;;;17.70;1.00;;;;;;8307031;28;20415;-78
2023/03/18 14:07:31;;;;;;;7.77;4.57;;;17.70;1.00;;;;;;8306692;28;20207;-78
2023/03/18 14:11:42;;;;;;;7.23;4.50;;;17.50;1.00;;;;;;8315436;28;20193;-78
2023/03/18 14:15:43;;;;;;;5.97;3.67;;;17.40;1.00;;;;;;8334466;28;20262;-79
2023/03/18 14:19:44;;;;;;;5.90;4.00;;;17.40;1.00;;;;;;8326645;28;20220;-78
2023/03/18 14:24:18;;;;;;;6.27;4.10;;;17.40;1.00;;;;;;8330789;28;20253;-78
2023/03/18 14:28:23;;;;;;;7.43;4.90;;;17.40;1.00;;;;;;8340350;28;20189;-78
2023/03/18 14:32:32;;;;;;;7.23;4.47;;;17.30;1.00;;;;;;8345715;28;20253;-78
2023/03/18 14:36:42;;;;;;;5.83;3.87;;;17.20;1.00;;;;;;8349547;28;20203;-78
2023/03/18 14:40:50;;;;;;;7.93;4.30;;;17.30;1.00;;;;;;8342033;28;20211;-79
2023/03/18 14:45:00;;;;;;;6.90;4.23;;;17.40;1.00;;;;;;8348747;28;20208;-79
2023/03/18 14:49:01;;;;;;;9.20;5.00;;;17.40;1.00;;;;;;8307919;28;20183;-78
2023/03/18 14:53:10;;;;;;;6.37;4.43;;;17.50;1.00;;;;;;8312212;28;20589;-78
2023/03/18 14:57:12;;;;;;;6.67;3.73;;;17.40;1.00;;;;;;8306996;28;20199;-79
2023/03/18 15:01:15;;;;;;;7.60;4.37;;;17.50;1.00;;;;;;8307235;28;20175;-79
2023/03/18 15:05:18;;;;;;;7.20;5.10;;;17.30;1.00;;;;;;8310362;28;20179;-79
2023/03/18 15:09:25;;;;;;;8.43;5.90;;;17.10;1.00;;;;;;8304961;28;20191;-79
2023/03/18 15:13:26;;;;;;;8.10;4.90;;;17.10;1.00;;;;;;8304658;28;20187;-78
2023/03/18 15:17:28;;;;;;;9.23;5.20;;;17.00;1.00;;;;;;8303038;28;20214;-78
2023/03/18 15:21:31;;;;;;;6.83;5.27;;;16.90;1.00;;;;;;8307977;28;20180;-78
2023/03/18 15:25:32;;;;;;;8.37;5.20;;;16.60;1.00;;;;;;8309061;28;20189;-78
2023/03/18 15:29:36;;;;;;;10.33;5.60;;;16.40;1.00;;;;;;8310286;28;20197;-78
2023/03/18 15:33:38;;;;;;;9.90;5.10;;;16.20;1.00;;;;;;8309671;28;20186;-78
2023/03/18 15:37:44;;;;;;;7.30;5.13;;;16.00;1.00;;;;;;8307960;28;20242;-78
2023/03/18 15:41:48;;;;;;;9.10;5.97;;;15.80;1.00;;;;;;8300669;28;20183;-78
2023/03/18 15:45:59;;;;;;;9.17;5.40;;;15.60;1.00;;;;;;8300534;28;20211;-77
2023/03/18 15:50:13;;;;;;;5.53;4.37;;;15.50;1.00;;;;;;8304191;28;20191;-78
2023/03/18 15:54:29;;;;;;;7.63;5.37;;;15.40;1.00;;;;;;8311095;28;20265;-78
2023/03/18 15:58:35;;;;;;;8.10;4.80;;;15.30;1.00;;;;;;8304703;28;20206;-79
2023/03/18 16:02:37;;;;;;;8.23;4.70;;;15.20;1.00;;;;;;8309967;28;20191;-78
2023/03/18 16:06:39;;;;;;;8.83;5.37;;;15.20;1.00;;;;;;8307983;28;20194;-78
2023/03/18 16:10:41;;;;;;;7.93;5.10;;;15.10;1.00;;;;;;8303427;28;20183;-78
2023/03/18 16:14:44;;;;;;;6.63;4.80;;;15.00;1.00;;;;;;8300497;28;20182;-78
2023/03/18 16:18:45;;;;;;;8.40;5.43;;;14.90;1.00;;;;;;8310316;28;20217;-78
2023/03/18 16:22:46;;;;;;;8.03;5.23;;;14.90;1.00;;;;;;8305223;28;20180;-78
2023/03/18 16:26:48;;;;;;;6.83;5.03;;;15.00;1.00;;;;;;8308086;28;20178;-78
2023/03/18 16:30:51;;;;;;;6.77;5.03;;;15.00;1.00;;;;;;8302310;28;20285;-78
2023/03/18 16:34:52;;;;;;;9.87;6.43;;;15.00;1.00;;;;;;8301229;28;20218;-77
2023/03/18 16:38:53;;;;;;;8.90;6.37;;;15.00;1.00;;;;;;8302448;28;20277;-78
2023/03/18 16:42:54;;;;;;;9.40;6.23;;;14.90;1.00;;;;;;8310073;28;20187;-78
2023/03/18 16:46:56;;;;;;;10.60;6.97;;;14.70;1.00;;;;;;8300410;28;20175;-78
2023/03/18 16:50:57;;;;;;;10.73;7.03;;;14.40;1.00;;;;;;8310010;28;20183;-78
2023/03/18 16:54:59;;;;;;;9.80;6.57;;;14.10;1.00;;;;;;8315844;28;20178;-78
2023/03/18 16:59:00;;;;;;;9.60;6.33;;;13.80;1.00;;;;;;8306430;28;20289;-78
2023/03/18 17:03:01;;;;;;;8.50;6.00;;;13.40;1.00;;;;;;8313827;28;20178;-78
2023/03/18 17:07:03;;;;;;;9.07;5.47;;;13.10;1.00;;;;;;8309288;28;20183;-79
2023/03/18 17:11:04;;;;;;;8.10;5.93;;;12.80;1.00;;;;;;8309581;28;20179;-78
2023/03/18 17:15:08;;;;;;;7.73;5.50;;;12.50;1.00;;;;;;8306798;28;20188;-78
2023/03/18 17:19:14;;;;;;;7.53;5.20;;;12.10;1.00;;;;;;8315515;28;20247;-79
2023/03/18 17:23:17;;;;;;;8.30;4.97;;;11.80;1.00;;;;;;8303776;28;20183;-78
2023/03/18 17:27:29;;;;;;;7.47;5.53;;;11.50;1.00;;;;;;8314171;28;20175;-78
2023/03/18 17:31:29;;;;;;;28.67;19.27;;;11.10;1.00;;;;;;8311947;28;20185;-83
2023/03/18 17:35:31;;;;;;;30.37;19.47;;;10.80;1.00;;;;;;8310178;28;20571;-82
2023/03/18 17:39:33;;;;;;;18.27;11.73;;;10.50;1.00;;;;;;8308295;28;20217;-82
2023/03/18 17:43:35;;;;;;;12.93;7.80;;;10.30;1.00;;;;;;8311504;28;20190;-83
2023/03/18 17:47:38;;;;;;;11.47;6.63;;;10.00;1.00;;;;;;8311024;28;20189;-83
2023/03/18 17:51:40;;;;;;;13.43;7.67;;;9.80;1.00;;;;;;8313235;28;20188;-83
2023/03/18 17:55:41;;;;;;;15.10;8.97;;;9.50;1.00;;;;;;8311049;28;20225;-82
2023/03/18 17:59:42;;;;;;;15.03;8.13;;;9.40;3.20;;;;;;8311476;28;20214;-83
2023/03/18 18:03:43;;;;;;;19.07;9.70;;;9.10;9.00;;;;;;8312730;28;20190;-83
2023/03/18 18:07:44;;;;;;;17.53;8.90;;;9.00;13.00;;;;;;8315394;28;20186;-83
2023/03/18 18:11:47;;;;;;;12.17;7.60;;;8.80;17.10;;;;;;8314109;28;20198;-86
2023/03/18 18:15:49;;;;;;;13.67;7.67;;;8.70;45.50;;;;;;8317817;28;20182;-83
2023/03/18 18:19:50;;;;;;;20.87;10.33;;;8.50;41.30;;;;;;8330939;28;20276;-84
2023/03/18 18:23:51;;;;;;;25.30;12.63;;;8.40;47.50;;;;;;8312797;28;20225;-84
2023/03/18 18:27:53;;;;;;;22.87;11.47;;;8.20;52.90;;;;;;8322072;28;20186;-84
2023/03/18 18:31:54;;;;;;;13.63;9.13;;;8.10;59.60;;;;;;8324587;28;20183;-83
2023/03/18 18:35:56;;;;;;;28.27;13.27;;;7.90;72.10;;;;;;8322980;28;20213;-82
2023/03/18 18:39:57;;;;;;;32.20;15.90;;;7.80;80.80;;;;;;8316386;28;20375;-83
2023/03/18 18:43:58;;;;;;;29.37;14.47;;;7.70;79.10;;;;;;8303712;28;20183;-82
2023/03/18 18:47:59;;;;;;;33.60;16.00;;;7.60;82.50;;;;;;8314014;28;20186;-83
2023/03/18 18:52:01;;;;;;;29.50;14.47;;;7.60;76.30;;;;;;8307592;28;20266;-82
2023/03/18 18:56:12;;;;;;;40.03;19.00;;;7.50;70.80;;;;;;8309036;28;20187;-83
2023/03/18 19:00:22;;;;;;;33.80;16.03;;;7.40;76.10;;;;;;8304869;28;20198;-83
2023/03/18 19:04:23;;;;;;;31.00;15.60;;;7.30;84.50;;;;;;8315210;28;20195;-84
2023/03/18 19:08:25;;;;;;;23.30;13.00;;;7.20;92.80;;;;;;8316275;28;20226;-84
2023/03/18 19:12:26;;;;;;;19.53;12.03;;;7.10;97.40;;;;;;8306207;28;20190;-84
2023/03/18 19:16:32;;;;;;;17.53;9.57;;;7.00;99.90;;;;;;8314923;28;20531;-83
2023/03/18 19:20:33;;;;;;;15.07;9.57;;;6.90;99.90;;;;;;8305867;28;20215;-83
2023/03/18 19:24:38;;;;;;;17.27;10.13;;;6.80;99.90;;;;;;8312414;28;20250;-82
2023/03/18 19:28:50;;;;;;;14.17;8.63;;;6.70;99.90;;;;;;8305152;28;20194;-83
2023/03/18 19:32:52;;;;;;;11.40;7.60;;;6.60;99.90;;;;;;8314290;28;20182;-83
2023/03/18 19:36:55;;;;;;;13.63;8.93;;;6.50;99.90;;;;;;8309196;28;20357;-82
2023/03/18 19:40:56;;;;;;;14.47;8.63;;;6.40;99.90;;;;;;8310392;28;20213;-83
2023/03/18 19:44:57;;;;;;;81.73;30.83;;;6.30;99.90;;;;;;8309421;28;20187;-83
2023/03/18 19:48:58;;;;;;;232.63;79.03;;;6.20;99.90;;;;;;8309618;28;20178;-83
2023/03/18 19:52:59;;;;;;;175.00;60.77;;;6.00;99.90;;;;;;8312890;28;20399;-83
2023/03/18 19:57:11;;;;;;;152.13;52.27;;;5.90;99.90;;;;;;8316561;28;20277;-83
2023/03/18 20:01:12;;;;;;;328.37;103.77;;;5.80;99.90;;;;;;8306494;28;20251;-84
2023/03/18 20:05:24;;;;;;;209.57;68.60;;;5.70;99.90;;;;;;8320956;28;20176;-84
2023/03/18 20:09:27;;;;;;;228.63;73.23;;;5.50;99.90;;;;;;8300983;28;20191;-82
2023/03/18 20:13:28;;;;;;;114.67;37.40;;;5.40;99.90;;;;;;8309691;28;20197;-84
2023/03/18 20:17:40;;;;;;;62.87;23.17;;;5.20;99.90;;;;;;8302010;28;20285;-83
2023/03/18 20:21:42;;;;;;;267.93;90.60;;;5.10;99.90;;;;;;8307436;28;20186;-84
2023/03/18 20:25:45;;;;;;;103.47;37.67;;;5.00;99.90;;;;;;8297233;28;20183;-81
2023/03/18 20:29:49;;;;;;;58.70;25.40;;;4.90;99.90;;;;;;8305353;28;20210;-81
2023/03/18 20:33:50;;;;;;;32.33;15.17;;;4.60;99.90;;;;;;8301397;28;20225;-84
2023/03/18 20:37:51;;;;;;;34.17;14.67;;;4.50;99.90;;;;;;8297760;28;20206;-83
2023/03/18 20:41:52;;;;;;;43.57;17.70;;;4.30;99.90;;;;;;8298667;28;20194;-82
2023/03/18 20:45:55;;;;;;;63.27;24.00;;;4.20;99.90;;;;;;8304550;28;20197;-82
2023/03/18 20:49:56;;;;;;;57.40;21.40;;;4.20;99.90;;;;;;8300769;28;20219;-84
2023/03/18 20:54:01;;;;;;;143.60;56.67;;;4.10;99.90;;;;;;8304407;28;20410;-84
2023/03/18 20:58:02;;;;;;;148.27;56.20;;;4.00;1.00;;;;;;8301640;28;20218;-84
2023/03/18 21:02:29;;;;;;;96.67;40.47;;;4.00;1.00;;;;;;8307048;28;20183;-84
2023/03/18 21:06:32;;;;;;;76.70;31.10;;;4.00;1.00;;;;;;8298270;28;20281;-84
2023/03/18 21:10:36;;;;;;;43.37;20.97;;;3.90;1.00;;;;;;8306371;28;20194;-86
2023/03/18 21:14:36;;;;;;;38.90;18.00;;;3.80;1.00;;;;;;8298809;28;20197;-84
2023/03/18 21:18:40;;;;;;;33.97;15.23;;;3.70;1.00;;;;;;8302490;28;20673;-83